sensor_id;sensor_type;location;lat;lon;timestamp;pressure;altitude;pressure_sealevel;temperature;humidity
79463;BME280;68931;47.286;18.756;2023-08-17T00:56:13;100848.69;;;19.54;94.33
79463;BME280;68931;47.286;18.756;2023-08-17T00:56:45;100842.00;;;19.50;94.35
79463;BME280;68931;47.286;18.756;2023-08-17T00:57:17;100840.03;;;19.52;93.89
79463;BME280;68931;47.286;18.756;2023-08-17T00:57:52;100847.19;;;19.52;93.81
79463;BME280;68931;47.286;18.756;2023-08-17T00:58:26;100844.53;;;19.52;94.22
79463;BME280;68931;47.286;18.756;2023-08-17T00:58:58;100842.25;;;19.47;94.42
79463;BME280;68931;47.286;18.756;2023-08-17T00:59:30;100842.69;;;19.52;94.39
79463;BME280;68931;47.286;18.756;2023-08-17T01:00:08;100837.63;;;19.49;94.36
79463;BME280;68931;47.286;18.756;2023-08-17T01:00:47;100850.53;;;19.54;94.45
79463;BME280;68931;47.286;18.756;2023-08-17T01:01:20;100842.97;;;19.49;94.17
79463;BME280;68931;47.286;18.756;2023-08-17T01:01:53;100846.81;;;19.45;94.25
79463;BME280;68931;47.286;18.756;2023-08-17T01:02:25;100848.81;;;19.43;94.16
79463;BME280;68931;47.286;18.756;2023-08-17T01:02:57;100850.63;;;19.43;93.71
79463;BME280;68931;47.286;18.756;2023-08-17T01:03:31;100856.06;;;19.41;93.86
79463;BME280;68931;47.286;18.756;2023-08-17T01:04:05;100856.63;;;19.45;93.95
79463;BME280;68931;47.286;18.756;2023-08-17T01:04:37;100861.41;;;19.41;94.08
79463;BME280;68931;47.286;18.756;2023-08-17T01:05:12;100865.75;;;19.42;94.32
79463;BME280;68931;47.286;18.756;2023-08-17T01:05:44;100868.53;;;19.41;94.68
79463;BME280;68931;47.286;18.756;2023-08-17T01:10:06;100866.44;;;19.44;94.66
79463;BME280;68931;47.286;18.756;2023-08-17T01:10:59;100867.44;;;19.43;94.58
79463;BME280;68931;47.286;18.756;2023-08-17T01:12:32;100875.25;;;19.45;94.45
79463;BME280;68931;47.286;18.756;2023-08-17T01:13:11;100867.97;;;19.37;94.62
79463;BME280;68931;47.286;18.756;2023-08-17T01:13:51;100868.81;;;19.38;94.79
79463;BME280;68931;47.286;18.756;2023-08-17T01:14:56;100874.72;;;19.41;94.91
79463;BME280;68931;47.286;18.756;2023-08-17T01:19:44;100882.25;;;19.36;95.17
79463;BME280;68931;47.286;18.756;2023-08-17T01:20:18;100852.63;;;19.20;95.39
79463;BME280;68931;47.286;18.756;2023-08-17T01:20:52;100879.03;;;19.33;95.07
79463;BME280;68931;47.286;18.756;2023-08-17T01:21:34;100874.69;;;19.32;94.93
79463;BME280;68931;47.286;18.756;2023-08-17T01:22:08;100888.28;;;19.38;95.28
79463;BME280;68931;47.286;18.756;2023-08-17T01:22:45;100870.91;;;19.34;95.26
79463;BME280;68931;47.286;18.756;2023-08-17T01:23:20;100882.56;;;19.43;95.42
79463;BME280;68931;47.286;18.756;2023-08-17T01:23:57;100872.19;;;19.40;95.15
79463;BME280;68931;47.286;18.756;2023-08-17T01:24:32;100887.50;;;19.47;95.78
79463;BME280;68931;47.286;18.756;2023-08-17T01:25:30;100885.53;;;19.49;95.84
79463;BME280;68931;47.286;18.756;2023-08-17T01:26:02;100863.59;;;19.36;95.12
79463;BME280;68931;47.286;18.756;2023-08-17T01:26:34;100861.91;;;19.35;95.40
79463;BME280;68931;47.286;18.756;2023-08-17T01:27:06;100882.16;;;19.47;95.45
79463;BME280;68931;47.286;18.756;2023-08-17T01:27:44;100870.91;;;19.44;95.04
79463;BME280;68931;47.286;18.756;2023-08-17T01:28:16;100882.03;;;19.49;95.53
79463;BME280;68931;47.286;18.756;2023-08-17T01:28:48;100864.31;;;19.38;95.56
79463;BME280;68931;47.286;18.756;2023-08-17T01:29:21;100882.63;;;19.52;95.44
79463;BME280;68931;47.286;18.756;2023-08-17T01:29:53;100871.53;;;19.47;95.15
79463;BME280;68931;47.286;18.756;2023-08-17T01:30:25;100883.31;;;19.54;95.56
79463;BME280;68931;47.286;18.756;2023-08-17T01:31:14;100869.72;;;19.48;95.21
79463;BME280;68931;47.286;18.756;2023-08-17T01:32:48;100880.78;;;19.53;95.05
79463;BME280;68931;47.286;18.756;2023-08-17T01:33:44;100880.34;;;19.48;95.17
79463;BME280;68931;47.286;18.756;2023-08-17T01:34:22;100884.09;;;19.45;94.99
79463;BME280;68931;47.286;18.756;2023-08-17T01:35:04;100880.88;;;19.42;94.91
79463;BME280;68931;47.286;18.756;2023-08-17T01:35:48;100884.38;;;19.42;95.32
79463;BME280;68931;47.286;18.756;2023-08-17T01:39:49;100872.75;;;19.43;95.55
79463;BME280;68931;47.286;18.756;2023-08-17T01:40:23;100870.91;;;19.44;95.71
79463;BME280;68931;47.286;18.756;2023-08-17T01:40:57;100873.56;;;19.44;95.35
79463;BME280;68931;47.286;18.756;2023-08-17T01:41:37;100871.75;;;19.44;95.14
79463;BME280;68931;47.286;18.756;2023-08-17T01:42:12;100872.75;;;19.43;95.21
79463;BME280;68931;47.286;18.756;2023-08-17T01:42:45;100855.34;;;19.30;94.92
79463;BME280;68931;47.286;18.756;2023-08-17T01:43:18;100870.22;;;19.42;94.78
79463;BME280;68931;47.286;18.756;2023-08-17T01:43:51;100854.94;;;19.34;95.15
79463;BME280;68931;47.286;18.756;2023-08-17T01:44:24;100866.72;;;19.41;94.95
79463;BME280;68931;47.286;18.756;2023-08-17T01:44:58;100865.03;;;19.40;95.26
79463;BME280;68931;47.286;18.756;2023-08-17T01:45:30;100856.88;;;19.32;95.45
79463;BME280;68931;47.286;18.756;2023-08-17T01:46:02;100862.50;;;19.39;94.82
79463;BME280;68931;47.286;18.756;2023-08-17T01:46:34;100858.28;;;19.36;95.39
79463;BME280;68931;47.286;18.756;2023-08-17T01:47:06;100854.22;;;19.32;95.40
79463;BME280;68931;47.286;18.756;2023-08-17T01:47:38;100869.09;;;19.35;95.23
79463;BME280;68931;47.286;18.756;2023-08-17T01:48:10;100858.59;;;19.33;94.99
79463;BME280;68931;47.286;18.756;2023-08-17T01:48:43;100854.22;;;19.32;94.96
79463;BME280;68931;47.286;18.756;2023-08-17T01:49:19;100858.00;;;19.30;95.27
79463;BME280;68931;47.286;18.756;2023-08-17T01:49:52;100865.13;;;19.29;95.03
79463;BME280;68931;47.286;18.756;2023-08-17T01:50:24;100853.34;;;19.22;95.17
79463;BME280;68931;47.286;18.756;2023-08-17T01:50:56;100857.41;;;19.26;94.95
79463;BME280;68931;47.286;18.756;2023-08-17T01:51:28;100858.72;;;19.32;94.97
79463;BME280;68931;47.286;18.756;2023-08-17T01:52:00;100851.69;;;19.31;95.29
79463;BME280;68931;47.286;18.756;2023-08-17T01:52:32;100853.78;;;19.27;95.33
79463;BME280;68931;47.286;18.756;2023-08-17T01:53:05;100852.94;;;19.27;95.40
79463;BME280;68931;47.286;18.756;2023-08-17T01:53:37;100847.78;;;19.25;95.61
79463;BME280;68931;47.286;18.756;2023-08-17T01:54:09;100826.53;;;19.04;95.37
79463;BME280;68931;47.286;18.756;2023-08-17T01:54:41;100852.50;;;19.22;95.08
79463;BME280;68931;47.286;18.756;2023-08-17T01:55:13;100856.00;;;19.22;94.73
79463;BME280;68931;47.286;18.756;2023-08-17T01:55:45;100857.13;;;19.20;94.67
79463;BME280;68931;47.286;18.756;2023-08-17T01:56:18;100857.25;;;19.18;94.60
79463;BME280;68931;47.286;18.756;2023-08-17T01:56:53;100859.91;;;19.18;94.74
79463;BME280;68931;47.286;18.756;2023-08-17T01:57:27;100858.25;;;19.17;94.76
79463;BME280;68931;47.286;18.756;2023-08-17T01:57:59;100858.50;;;19.14;95.01
79463;BME280;68931;47.286;18.756;2023-08-17T01:58:31;100850.78;;;19.11;94.71
79463;BME280;68931;47.286;18.756;2023-08-17T01:59:04;100863.94;;;19.12;94.49
79463;BME280;68931;47.286;18.756;2023-08-17T01:59:36;100862.13;;;19.13;95.00
79463;BME280;68931;47.286;18.756;2023-08-17T02:00:08;100869.16;;;19.14;95.21
79463;BME280;68931;47.286;18.756;2023-08-17T02:00:42;100827.59;;;18.92;95.34
79463;BME280;68931;47.286;18.756;2023-08-17T02:01:14;100861.28;;;19.12;94.76
79463;BME280;68931;47.286;18.756;2023-08-17T02:01:46;100863.13;;;19.12;95.27
79463;BME280;68931;47.286;18.756;2023-08-17T02:02:18;100858.38;;;19.15;95.28
79463;BME280;68931;47.286;18.756;2023-08-17T02:02:51;100853.19;;;19.14;94.83
79463;BME280;68931;47.286;18.756;2023-08-17T02:03:23;100843.78;;;19.10;95.30
79463;BME280;68931;47.286;18.756;2023-08-17T02:03:55;100843.09;;;19.08;95.57
79463;BME280;68931;47.286;18.756;2023-08-17T02:04:27;100858.25;;;19.17;95.18
79463;BME280;68931;47.286;18.756;2023-08-17T02:04:59;100866.91;;;19.19;95.23
79463;BME280;68931;47.286;18.756;2023-08-17T02:05:51;100863.56;;;19.17;95.05
79463;BME280;68931;47.286;18.756;2023-08-17T02:06:23;100863.56;;;19.17;95.06
79463;BME280;68931;47.286;18.756;2023-08-17T02:06:55;100870.53;;;19.18;95.12
79463;BME280;68931;47.286;18.756;2023-08-17T02:07:28;100862.97;;;19.13;95.05
79463;BME280;68931;47.286;18.756;2023-08-17T02:08:00;100862.13;;;19.13;95.04
79463;BME280;68931;47.286;18.756;2023-08-17T02:08:33;100866.34;;;19.15;95.29
79463;BME280;68931;47.286;18.756;2023-08-17T02:09:06;100861.16;;;19.14;95.07
79463;BME280;68931;47.286;18.756;2023-08-17T02:09:38;100864.38;;;19.17;94.85
79463;BME280;68931;47.286;18.756;2023-08-17T02:10:11;100850.22;;;19.07;95.25
79463;BME280;68931;47.286;18.756;2023-08-17T02:10:43;100863.81;;;19.14;95.40
79463;BME280;68931;47.286;18.756;2023-08-17T02:11:37;100873.75;;;19.12;95.02
79463;BME280;68931;47.286;18.756;2023-08-17T02:12:10;100876.41;;;19.12;95.03
79463;BME280;68931;47.286;18.756;2023-08-17T02:12:42;100862.56;;;19.08;95.70
79463;BME280;68931;47.286;18.756;2023-08-17T02:13:16;100865.78;;;19.12;95.57
79463;BME280;68931;47.286;18.756;2023-08-17T02:13:49;100871.94;;;19.12;95.45
79463;BME280;68931;47.286;18.756;2023-08-17T02:14:21;100871.09;;;19.12;95.36
79463;BME280;68931;47.286;18.756;2023-08-17T02:14:53;100850.75;;;19.01;95.28
79463;BME280;68931;47.286;18.756;2023-08-17T02:15:25;100861.84;;;19.06;95.47
79463;BME280;68931;47.286;18.756;2023-08-17T02:15:57;100858.34;;;19.06;95.20
79463;BME280;68931;47.286;18.756;2023-08-17T02:16:29;100857.63;;;19.04;95.28
79463;BME280;68931;47.286;18.756;2023-08-17T02:17:05;100871.22;;;19.10;95.49
79463;BME280;68931;47.286;18.756;2023-08-17T02:17:37;100865.06;;;19.10;95.36
79463;BME280;68931;47.286;18.756;2023-08-17T02:18:09;100835.91;;;18.99;95.59
79463;BME280;68931;47.286;18.756;2023-08-17T02:18:41;100861.88;;;19.16;95.50
79463;BME280;68931;47.286;18.756;2023-08-17T02:19:13;100865.22;;;19.18;95.98
79463;BME280;68931;47.286;18.756;2023-08-17T02:19:45;100859.06;;;19.17;96.17
79463;BME280;68931;47.286;18.756;2023-08-17T02:20:21;100860.91;;;19.17;95.97
79463;BME280;68931;47.286;18.756;2023-08-17T02:20:53;100858.09;;;19.18;95.94
79463;BME280;68931;47.286;18.756;2023-08-17T02:21:25;100865.69;;;19.23;96.01
79463;BME280;68931;47.286;18.756;2023-08-17T02:22:01;100869.31;;;19.22;96.40
79463;BME280;68931;47.286;18.756;2023-08-17T02:22:33;100864.84;;;19.23;95.83
79463;BME280;68931;47.286;18.756;2023-08-17T02:23:05;100864.84;;;19.23;96.14
79463;BME280;68931;47.286;18.756;2023-08-17T02:23:37;100864.72;;;19.24;96.46
79463;BME280;68931;47.286;18.756;2023-08-17T02:24:09;100861.34;;;19.22;96.16
79463;BME280;68931;47.286;18.756;2023-08-17T02:24:41;100851.38;;;19.14;95.73
79463;BME280;68931;47.286;18.756;2023-08-17T02:25:13;100858.81;;;19.21;96.05
79463;BME280;68931;47.286;18.756;2023-08-17T02:25:45;100833.56;;;19.05;95.92
79463;BME280;68931;47.286;18.756;2023-08-17T02:26:18;100830.91;;;19.05;96.00
79463;BME280;68931;47.286;18.756;2023-08-17T02:26:50;100862.31;;;19.21;95.57
79463;BME280;68931;47.286;18.756;2023-08-17T02:47:22;100855.22;;;19.41;96.39
79463;BME280;68931;47.286;18.756;2023-08-17T02:47:54;100856.34;;;19.38;96.25
79463;BME280;68931;47.286;18.756;2023-08-17T02:48:26;100831.09;;;19.23;95.90
79463;BME280;68931;47.286;18.756;2023-08-17T02:48:58;100858.44;;;19.35;96.46
79463;BME280;68931;47.286;18.756;2023-08-17T02:49:30;100849.03;;;19.31;96.43
79463;BME280;68931;47.286;18.756;2023-08-17T02:50:02;100849.88;;;19.31;96.10
79463;BME280;68931;47.286;18.756;2023-08-17T02:50:35;100837.13;;;19.25;96.32
79463;BME280;68931;47.286;18.756;2023-08-17T02:51:07;100849.31;;;19.28;96.63
79463;BME280;68931;47.286;18.756;2023-08-17T02:51:39;100836.97;;;19.17;96.29
79463;BME280;68931;47.286;18.756;2023-08-17T02:52:11;100857.03;;;19.31;96.69
79463;BME280;68931;47.286;18.756;2023-08-17T02:52:43;100856.19;;;19.30;96.97
79463;BME280;68931;47.286;18.756;2023-08-17T02:53:16;100851.81;;;19.29;97.15
79463;BME280;68931;47.286;18.756;2023-08-17T02:53:48;100838.38;;;19.21;97.25
79463;BME280;68931;47.286;18.756;2023-08-17T02:54:20;100859.13;;;19.37;97.14
79463;BME280;68931;47.286;18.756;2023-08-17T02:54:52;100860.94;;;19.36;97.05
79463;BME280;68931;47.286;18.756;2023-08-17T02:55:24;100836.69;;;19.20;97.23
79463;BME280;68931;47.286;18.756;2023-08-17T02:55:56;100854.34;;;19.31;97.20
79463;BME280;68931;47.286;18.756;2023-08-17T02:56:29;100853.38;;;19.32;97.34
79463;BME280;68931;47.286;18.756;2023-08-17T02:57:04;100847.34;;;19.30;97.65
79463;BME280;68931;47.286;18.756;2023-08-17T02:57:36;100831.09;;;19.23;97.32
79463;BME280;68931;47.286;18.756;2023-08-17T02:58:08;100851.28;;;19.35;97.23
79463;BME280;68931;47.286;18.756;2023-08-17T02:58:41;100839.50;;;19.28;97.27
79463;BME280;68931;47.286;18.756;2023-08-17T02:59:13;100848.63;;;19.35;97.16
79463;BME280;68931;47.286;18.756;2023-08-17T02:59:45;100849.06;;;19.40;97.76
79463;BME280;68931;47.286;18.756;2023-08-17T03:00:17;100829.19;;;19.35;97.87
79463;BME280;68931;47.286;18.756;2023-08-17T03:00:51;100845.31;;;19.43;97.94
79463;BME280;68931;47.286;18.756;2023-08-17T03:01:24;100818.22;;;19.28;97.63
79463;BME280;68931;47.286;18.756;2023-08-17T03:01:58;100847.81;;;19.44;97.81
79463;BME280;68931;47.286;18.756;2023-08-17T03:02:30;100841.09;;;19.40;97.60
79463;BME280;68931;47.286;18.756;2023-08-17T03:03:02;100845.13;;;19.44;98.03
79463;BME280;68931;47.286;18.756;2023-08-17T03:03:37;100842.66;;;19.43;98.05
79463;BME280;68931;47.286;18.756;2023-08-17T03:04:09;100855.78;;;19.44;97.62
79463;BME280;68931;47.286;18.756;2023-08-17T03:04:41;100851.47;;;19.43;97.87
79463;BME280;68931;47.286;18.756;2023-08-17T03:05:13;100847.97;;;19.43;97.97
79463;BME280;68931;47.286;18.756;2023-08-17T03:05:45;100846.16;;;19.43;97.92
79463;BME280;68931;47.286;18.756;2023-08-17T03:06:17;100848.81;;;19.43;97.44
79463;BME280;68931;47.286;18.756;2023-08-17T03:06:52;100815.97;;;19.24;97.63
79463;BME280;68931;47.286;18.756;2023-08-17T03:07:24;100847.66;;;19.46;98.06
79463;BME280;68931;47.286;18.756;2023-08-17T03:07:56;100838.16;;;19.43;98.00
79463;BME280;68931;47.286;18.756;2023-08-17T03:08:28;100833.09;;;19.40;97.82
79463;BME280;68931;47.286;18.756;2023-08-17T03:09:00;100848.28;;;19.49;98.17
79463;BME280;68931;47.286;18.756;2023-08-17T03:09:35;100804.78;;;19.30;98.25
79463;BME280;68931;47.286;18.756;2023-08-17T03:10:07;100839.88;;;19.54;98.26
79463;BME280;68931;47.286;18.756;2023-08-17T03:10:39;100839.88;;;19.54;98.04
79463;BME280;68931;47.286;18.756;2023-08-17T03:11:11;100831.47;;;19.49;98.36
79463;BME280;68931;47.286;18.756;2023-08-17T03:11:43;100844.09;;;19.57;98.04
79463;BME280;68931;47.286;18.756;2023-08-17T03:12:15;100848.84;;;19.53;98.25
79463;BME280;68931;47.286;18.756;2023-08-17T03:12:47;100851.50;;;19.53;97.98
79463;BME280;68931;47.286;18.756;2023-08-17T03:13:20;100842.69;;;19.52;98.46
79463;BME280;68931;47.286;18.756;2023-08-17T03:13:52;100851.38;;;19.54;98.17
79463;BME280;68931;47.286;18.756;2023-08-17T03:14:25;100842.13;;;19.49;97.67
79463;BME280;68931;47.286;18.756;2023-08-17T03:14:58;100848.84;;;19.53;97.99
79463;BME280;68931;47.286;18.756;2023-08-17T03:15:30;100855.00;;;19.53;97.87
79463;BME280;68931;47.286;18.756;2023-08-17T03:16:02;100843.66;;;19.51;97.72
79463;BME280;68931;47.286;18.756;2023-08-17T03:16:34;100855.00;;;19.53;97.60
79463;BME280;68931;47.286;18.756;2023-08-17T03:17:06;100850.81;;;19.51;97.32
79463;BME280;68931;47.286;18.756;2023-08-17T03:17:38;100848.03;;;19.52;97.63
79463;BME280;68931;47.286;18.756;2023-08-17T03:18:13;100850.38;;;19.56;98.07
79463;BME280;68931;47.286;18.756;2023-08-17T03:18:45;100850.25;;;19.57;98.05
79463;BME280;68931;47.286;18.756;2023-08-17T03:19:17;100858.38;;;19.56;97.80
79463;BME280;68931;47.286;18.756;2023-08-17T03:19:51;100816.97;;;19.32;97.64
79463;BME280;68931;47.286;18.756;2023-08-17T03:20:23;100850.53;;;19.54;97.59
79463;BME280;68931;47.286;18.756;2023-08-17T03:20:56;100813.91;;;19.37;97.35
79463;BME280;68931;47.286;18.756;2023-08-17T03:21:28;100814.59;;;19.39;97.32
79463;BME280;68931;47.286;18.756;2023-08-17T03:22:00;100848.84;;;19.53;97.34
79463;BME280;68931;47.286;18.756;2023-08-17T03:22:34;100850.53;;;19.54;97.83
79463;BME280;68931;47.286;18.756;2023-08-17T03:23:06;100850.38;;;19.56;97.89
79463;BME280;68931;47.286;18.756;2023-08-17T03:23:42;100846.75;;;19.57;97.71
79463;BME280;68931;47.286;18.756;2023-08-17T03:24:14;100857.28;;;19.58;97.34
79463;BME280;68931;47.286;18.756;2023-08-17T03:24:46;100857.28;;;19.58;97.53
79463;BME280;68931;47.286;18.756;2023-08-17T03:25:18;100855.59;;;19.57;97.25
79463;BME280;68931;47.286;18.756;2023-08-17T03:25:53;100848.28;;;19.49;97.49
79463;BME280;68931;47.286;18.756;2023-08-17T03:26:26;100843.94;;;19.48;97.69
79463;BME280;68931;47.286;18.756;2023-08-17T03:26:58;100849.53;;;19.55;97.59
79463;BME280;68931;47.286;18.756;2023-08-17T03:27:30;100818.25;;;19.38;97.74
79463;BME280;68931;47.286;18.756;2023-08-17T03:28:02;100863.44;;;19.59;97.58
79463;BME280;68931;47.286;18.756;2023-08-17T03:28:34;100834.25;;;19.47;97.44
79463;BME280;68931;47.286;18.756;2023-08-17T03:29:07;100863.31;;;19.60;97.88
79463;BME280;68931;47.286;18.756;2023-08-17T03:29:40;100856.41;;;19.58;97.82
79463;BME280;68931;47.286;18.756;2023-08-17T03:30:12;100855.44;;;19.59;97.41
79463;BME280;68931;47.286;18.756;2023-08-17T03:30:44;100851.94;;;19.58;97.51
79463;BME280;68931;47.286;18.756;2023-08-17T03:31:41;100833.28;;;19.48;97.69
79463;BME280;68931;47.286;18.756;2023-08-17T03:32:13;100848.00;;;19.62;98.05
79463;BME280;68931;47.286;18.756;2023-08-17T03:32:45;100847.16;;;19.62;98.28
79463;BME280;68931;47.286;18.756;2023-08-17T03:33:17;100844.38;;;19.63;98.36
79463;BME280;68931;47.286;18.756;2023-08-17T03:33:49;100846.91;;;19.65;98.49
79463;BME280;68931;47.286;18.756;2023-08-17T03:35:02;100812.97;;;19.47;98.11
79463;BME280;68931;47.286;18.756;2023-08-17T03:40:26;100819.28;;;19.56;97.52
79463;BME280;68931;47.286;18.756;2023-08-17T03:41:02;100830.22;;;19.63;97.53
79463;BME280;68931;47.286;18.756;2023-08-17T03:41:36;100840.47;;;19.67;97.93
79463;BME280;68931;47.286;18.756;2023-08-17T03:42:08;100843.97;;;19.68;97.70
79463;BME280;68931;47.286;18.756;2023-08-17T03:42:40;100842.69;;;19.62;97.36
79463;BME280;68931;47.286;18.756;2023-08-17T03:43:13;100825.06;;;19.61;97.23
79463;BME280;68931;47.286;18.756;2023-08-17T03:44:03;100839.75;;;19.65;97.61
79463;BME280;68931;47.286;18.756;2023-08-17T03:44:37;100831.34;;;19.60;97.54
79463;BME280;68931;47.286;18.756;2023-08-17T03:45:09;100839.19;;;19.62;97.26
79463;BME280;68931;47.286;18.756;2023-08-17T03:45:41;100803.97;;;19.39;97.05
79463;BME280;68931;47.286;18.756;2023-08-17T03:46:14;100848.19;;;19.61;97.48
79463;BME280;68931;47.286;18.756;2023-08-17T03:46:49;100836.81;;;19.59;97.12
79463;BME280;68931;47.286;18.756;2023-08-17T03:47:21;100828.69;;;19.50;97.09
79463;BME280;68931;47.286;18.756;2023-08-17T03:47:53;100836.09;;;19.57;97.38
79463;BME280;68931;47.286;18.756;2023-08-17T03:48:28;100836.09;;;19.57;97.43
79463;BME280;68931;47.286;18.756;2023-08-17T03:49:00;100831.47;;;19.49;97.25
79463;BME280;68931;47.286;18.756;2023-08-17T03:50:21;100844.94;;;19.57;97.24
79463;BME280;68931;47.286;18.756;2023-08-17T03:51:09;100835.13;;;19.58;97.27
79463;BME280;68931;47.286;18.756;2023-08-17T03:51:55;100841.69;;;19.53;97.90
79463;BME280;68931;47.286;18.756;2023-08-17T03:52:27;100837.22;;;19.54;97.38
79463;BME280;68931;47.286;18.756;2023-08-17T03:52:59;100835.81;;;19.50;97.56
79463;BME280;68931;47.286;18.756;2023-08-17T03:53:31;100838.06;;;19.54;97.39
79463;BME280;68931;47.286;18.756;2023-08-17T03:54:04;100821.66;;;19.49;97.57
79463;BME280;68931;47.286;18.756;2023-08-17T03:54:36;100832.59;;;19.56;97.37
79463;BME280;68931;47.286;18.756;2023-08-17T03:55:09;100838.91;;;19.55;97.63
79463;BME280;68931;47.286;18.756;2023-08-17T03:57:28;100845.06;;;19.56;98.03
79463;BME280;68931;47.286;18.756;2023-08-17T03:58:01;100841.69;;;19.53;97.51
79463;BME280;68931;47.286;18.756;2023-08-17T03:58:33;100845.19;;;19.54;97.56
79463;BME280;68931;47.286;18.756;2023-08-17T03:59:06;100830.63;;;19.48;98.18
79463;BME280;68931;47.286;18.756;2023-08-17T03:59:38;100838.91;;;19.55;97.78
79463;BME280;68931;47.286;18.756;2023-08-17T04:00:11;100833.72;;;19.53;97.88
79463;BME280;68931;47.286;18.756;2023-08-17T04:00:52;100849.16;;;19.60;97.76
79463;BME280;68931;47.286;18.756;2023-08-17T04:01:24;100847.16;;;19.62;97.70
79463;BME280;68931;47.286;18.756;2023-08-17T04:05:53;100852.81;;;19.68;98.24
79463;BME280;68931;47.286;18.756;2023-08-17T04:06:27;100851.84;;;19.69;98.30
79463;BME280;68931;47.286;18.756;2023-08-17T04:07:00;100828.69;;;19.60;98.16
79463;BME280;68931;47.286;18.756;2023-08-17T04:07:32;100850.16;;;19.68;97.92
79463;BME280;68931;47.286;18.756;2023-08-17T04:08:04;100842.41;;;19.65;98.18
79463;BME280;68931;47.286;18.756;2023-08-17T04:08:37;100824.75;;;19.54;97.70
79463;BME280;68931;47.286;18.756;2023-08-17T04:09:09;100856.00;;;19.72;98.04
79463;BME280;68931;47.286;18.756;2023-08-17T04:09:43;100850.00;;;19.70;97.92
79463;BME280;68931;47.286;18.756;2023-08-17T04:10:16;100855.34;;;19.70;97.80
79463;BME280;68931;47.286;18.756;2023-08-17T04:10:48;100845.78;;;19.67;98.13
79463;BME280;68931;47.286;18.756;2023-08-17T04:13:29;100850.53;;;19.64;97.58
79463;BME280;68931;47.286;18.756;2023-08-17T04:14:01;100864.31;;;19.69;97.88
79463;BME280;68931;47.286;18.756;2023-08-17T04:14:33;100864.44;;;19.67;97.50
79463;BME280;68931;47.286;18.756;2023-08-17T04:15:07;100867.38;;;19.74;97.16
79463;BME280;68931;47.286;18.756;2023-08-17T04:15:39;100860.50;;;19.71;97.52
79463;BME280;68931;47.286;18.756;2023-08-17T04:16:11;100866.28;;;19.76;97.27
79463;BME280;68931;47.286;18.756;2023-08-17T04:16:44;100856.31;;;19.69;97.33
79463;BME280;68931;47.286;18.756;2023-08-17T04:17:16;100858.53;;;19.73;97.29
79463;BME280;68931;47.286;18.756;2023-08-17T04:17:48;100853.34;;;19.72;97.87
79463;BME280;68931;47.286;18.756;2023-08-17T04:18:20;100864.44;;;19.77;97.61
79463;BME280;68931;47.286;18.756;2023-08-17T05:47:14;100856.25;;;21.12;92.75
79463;BME280;68931;47.286;18.756;2023-08-17T05:47:49;100878.88;;;21.27;92.03
79463;BME280;68931;47.286;18.756;2023-08-17T05:48:21;100862.84;;;21.27;92.16
79463;BME280;68931;47.286;18.756;2023-08-17T05:48:53;100869.31;;;21.24;93.04
79463;BME280;68931;47.286;18.756;2023-08-17T05:49:26;100867.88;;;21.30;92.82
79463;BME280;68931;47.286;18.756;2023-08-17T05:49:58;100873.75;;;21.33;92.31
79463;BME280;68931;47.286;18.756;2023-08-17T05:50:33;100873.75;;;21.33;92.70
79463;BME280;68931;47.286;18.756;2023-08-17T05:51:05;100870.97;;;21.35;92.25
79463;BME280;68931;47.286;18.756;2023-08-17T05:55:30;100870.94;;;21.62;91.17
79463;BME280;68931;47.286;18.756;2023-08-17T05:56:02;100861.09;;;21.63;90.49
79463;BME280;68931;47.286;18.756;2023-08-17T05:56:37;100833.91;;;21.50;90.67
79463;BME280;68931;47.286;18.756;2023-08-17T05:57:09;100845.22;;;21.61;90.58
79463;BME280;68931;47.286;18.756;2023-08-17T05:57:42;100862.03;;;21.71;90.13
79463;BME280;68931;47.286;18.756;2023-08-17T05:58:14;100856.13;;;21.68;90.69
79463;BME280;68931;47.286;18.756;2023-08-17T05:58:46;100857.69;;;21.70;91.08
79463;BME280;68931;47.286;18.756;2023-08-17T05:59:18;100871.03;;;21.70;91.38
79463;BME280;68931;47.286;18.756;2023-08-17T05:59:50;100846.91;;;21.62;90.54
79463;BME280;68931;47.286;18.756;2023-08-17T06:00:22;100855.84;;;21.71;90.62
79463;BME280;68931;47.286;18.756;2023-08-17T06:01:09;100857.91;;;21.77;90.40
79463;BME280;68931;47.286;18.756;2023-08-17T06:01:47;100869.81;;;21.83;90.87
79463;BME280;68931;47.286;18.756;2023-08-17T06:02:20;100843.34;;;21.71;90.46
79463;BME280;68931;47.286;18.756;2023-08-17T06:02:52;100862.03;;;21.89;90.10
79463;BME280;68931;47.286;18.756;2023-08-17T06:03:24;100865.56;;;21.90;90.37
79463;BME280;68931;47.286;18.756;2023-08-17T06:03:56;100871.72;;;21.90;90.04
79463;BME280;68931;47.286;18.756;2023-08-17T06:04:28;100858.91;;;21.94;90.17
79463;BME280;68931;47.286;18.756;2023-08-17T06:05:00;100864.94;;;21.96;89.61
79463;BME280;68931;47.286;18.756;2023-08-17T06:05:32;100852.03;;;21.91;90.16
79463;BME280;68931;47.286;18.756;2023-08-17T06:06:05;100867.50;;;21.97;89.59
79463;BME280;68931;47.286;18.756;2023-08-17T06:06:46;100845.47;;;21.86;89.37
79463;BME280;68931;47.286;18.756;2023-08-17T06:07:19;100874.06;;;22.03;88.94
79463;BME280;68931;47.286;18.756;2023-08-17T06:07:51;100863.66;;;22.00;89.48
79463;BME280;68931;47.286;18.756;2023-08-17T06:08:23;100863.84;;;21.98;89.67
79463;BME280;68931;47.286;18.756;2023-08-17T06:08:55;100870.69;;;22.01;89.41
79463;BME280;68931;47.286;18.756;2023-08-17T06:09:27;100873.91;;;22.04;90.00
79463;BME280;68931;47.286;18.756;2023-08-17T06:09:59;100872.38;;;22.02;90.04